sensor_id;sensor_type;location;lat;lon;timestamp;P1;durP1;ratioP1;P2;durP2;ratioP2
72037;SDS011;59900;50.788;12.904;2023-04-19T00:01:23;25.77;;;12.53;;
72037;SDS011;59900;50.788;12.904;2023-04-19T00:03:48;24.08;;;12.05;;
72037;SDS011;59900;50.788;12.904;2023-04-19T00:06:14;23.70;;;12.67;;
72037;SDS011;59900;50.788;12.904;2023-04-19T00:08:40;25.67;;;12.20;;
72037;SDS011;59900;50.788;12.904;2023-04-19T00:11:08;25.13;;;12.93;;
72037;SDS011;59900;50.788;12.904;2023-04-19T00:13:34;28.75;;;13.02;;
72037;SDS011;59900;50.788;12.904;2023-04-19T00:15:59;27.00;;;13.73;;
72037;SDS011;59900;50.788;12.904;2023-04-19T00:18:24;28.63;;;13.30;;
72037;SDS011;59900;50.788;12.904;2023-04-19T00:20:50;23.73;;;12.30;;
72037;SDS011;59900;50.788;12.904;2023-04-19T00:23:15;24.47;;;12.80;;
72037;SDS011;59900;50.788;12.904;2023-04-19T00:25:40;28.03;;;12.37;;
72037;SDS011;59900;50.788;12.904;2023-04-19T00:28:06;24.25;;;12.10;;
72037;SDS011;59900;50.788;12.904;2023-04-19T00:30:31;25.27;;;11.73;;
72037;SDS011;59900;50.788;12.904;2023-04-19T00:32:56;28.87;;;12.37;;
72037;SDS011;59900;50.788;12.904;2023-04-19T00:35:22;23.17;;;11.40;;
72037;SDS011;59900;50.788;12.904;2023-04-19T00:37:47;20.33;;;10.67;;
72037;SDS011;59900;50.788;12.904;2023-04-19T00:40:12;23.23;;;10.70;;
72037;SDS011;59900;50.788;12.904;2023-04-19T00:42:37;19.20;;;9.80;;
72037;SDS011;59900;50.788;12.904;2023-04-19T00:45:03;20.73;;;10.60;;
72037;SDS011;59900;50.788;12.904;2023-04-19T00:47:29;18.35;;;10.43;;
72037;SDS011;59900;50.788;12.904;2023-04-19T00:49:54;19.30;;;9.20;;
72037;SDS011;59900;50.788;12.904;2023-04-19T00:52:20;17.73;;;9.07;;
72037;SDS011;59900;50.788;12.904;2023-04-19T00:54:47;18.98;;;8.85;;
72037;SDS011;59900;50.788;12.904;2023-04-19T00:57:13;14.98;;;8.15;;
72037;SDS011;59900;50.788;12.904;2023-04-19T00:59:39;16.93;;;8.47;;
72037;SDS011;59900;50.788;12.904;2023-04-19T01:02:05;19.90;;;8.38;;
72037;SDS011;59900;50.788;12.904;2023-04-19T01:04:31;15.90;;;8.35;;
72037;SDS011;59900;50.788;12.904;2023-04-19T01:06:56;17.00;;;8.90;;
72037;SDS011;59900;50.788;12.904;2023-04-19T01:09:21;17.13;;;8.30;;
72037;SDS011;59900;50.788;12.904;2023-04-19T01:11:47;18.00;;;8.40;;
72037;SDS011;59900;50.788;12.904;2023-04-19T01:14:12;15.70;;;8.60;;
72037;SDS011;59900;50.788;12.904;2023-04-19T01:16:37;17.13;;;8.40;;
72037;SDS011;59900;50.788;12.904;2023-04-19T01:19:03;19.20;;;8.27;;
72037;SDS011;59900;50.788;12.904;2023-04-19T01:21:28;15.80;;;8.43;;
72037;SDS011;59900;50.788;12.904;2023-04-19T01:23:54;15.15;;;8.18;;
72037;SDS011;59900;50.788;12.904;2023-04-19T01:26:20;16.13;;;7.87;;
72037;SDS011;59900;50.788;12.904;2023-04-19T01:28:45;15.90;;;7.75;;
72037;SDS011;59900;50.788;12.904;2023-04-19T01:31:10;15.43;;;7.77;;
72037;SDS011;59900;50.788;12.904;2023-04-19T01:33:35;12.77;;;7.50;;
72037;SDS011;59900;50.788;12.904;2023-04-19T01:36:01;17.57;;;7.83;;
72037;SDS011;59900;50.788;12.904;2023-04-19T01:38:26;13.17;;;7.17;;
72037;SDS011;59900;50.788;12.904;2023-04-19T01:40:51;15.97;;;8.07;;
72037;SDS011;59900;50.788;12.904;2023-04-19T01:43:17;14.20;;;7.30;;
72037;SDS011;59900;50.788;12.904;2023-04-19T01:45:42;13.90;;;6.90;;
72037;SDS011;59900;50.788;12.904;2023-04-19T01:48:08;14.93;;;7.23;;
72037;SDS011;59900;50.788;12.904;2023-04-19T01:50:33;14.17;;;7.27;;
72037;SDS011;59900;50.788;12.904;2023-04-19T01:52:59;15.73;;;7.90;;
72037;SDS011;59900;50.788;12.904;2023-04-19T01:55:24;15.02;;;6.90;;
72037;SDS011;59900;50.788;12.904;2023-04-19T01:57:50;14.60;;;6.57;;
72037;SDS011;59900;50.788;12.904;2023-04-19T02:00:18;13.70;;;7.22;;
72037;SDS011;59900;50.788;12.904;2023-04-19T02:02:44;13.67;;;7.30;;
72037;SDS011;59900;50.788;12.904;2023-04-19T02:05:09;14.13;;;6.67;;
72037;SDS011;59900;50.788;12.904;2023-04-19T02:07:35;15.63;;;7.17;;
72037;SDS011;59900;50.788;12.904;2023-04-19T02:10:01;17.83;;;8.05;;
72037;SDS011;59900;50.788;12.904;2023-04-19T02:12:26;15.97;;;7.60;;
72037;SDS011;59900;50.788;12.904;2023-04-19T02:14:53;15.73;;;7.50;;
72037;SDS011;59900;50.788;12.904;2023-04-19T02:17:21;14.70;;;7.37;;
72037;SDS011;59900;50.788;12.904;2023-04-19T02:19:46;14.07;;;7.50;;
72037;SDS011;59900;50.788;12.904;2023-04-19T02:22:12;15.47;;;7.93;;
72037;SDS011;59900;50.788;12.904;2023-04-19T02:24:37;14.40;;;7.73;;
72037;SDS011;59900;50.788;12.904;2023-04-19T02:27:02;16.43;;;7.30;;
72037;SDS011;59900;50.788;12.904;2023-04-19T02:29:27;16.80;;;8.00;;
72037;SDS011;59900;50.788;12.904;2023-04-19T02:31:53;16.47;;;7.40;;
72037;SDS011;59900;50.788;12.904;2023-04-19T02:34:18;15.87;;;7.50;;
72037;SDS011;59900;50.788;12.904;2023-04-19T02:36:43;16.20;;;7.80;;
72037;SDS011;59900;50.788;12.904;2023-04-19T02:39:08;15.90;;;6.87;;
72037;SDS011;59900;50.788;12.904;2023-04-19T02:41:34;13.90;;;6.83;;
72037;SDS011;59900;50.788;12.904;2023-04-19T02:43:59;15.87;;;7.47;;
72037;SDS011;59900;50.788;12.904;2023-04-19T02:46:24;13.77;;;7.43;;
72037;SDS011;59900;50.788;12.904;2023-04-19T02:48:50;13.87;;;7.00;;
72037;SDS011;59900;50.788;12.904;2023-04-19T02:51:15;15.75;;;7.93;;
72037;SDS011;59900;50.788;12.904;2023-04-19T02:53:41;16.63;;;7.83;;
72037;SDS011;59900;50.788;12.904;2023-04-19T02:56:07;15.07;;;7.80;;
72037;SDS011;59900;50.788;12.904;2023-04-19T02:58:32;17.67;;;7.20;;
72037;SDS011;59900;50.788;12.904;2023-04-19T03:00:57;15.73;;;7.90;;
72037;SDS011;59900;50.788;12.904;2023-04-19T03:03:23;18.47;;;8.20;;
72037;SDS011;59900;50.788;12.904;2023-04-19T03:05:48;15.23;;;7.93;;
72037;SDS011;59900;50.788;12.904;2023-04-19T03:08:13;14.97;;;8.13;;
72037;SDS011;59900;50.788;12.904;2023-04-19T03:10:38;16.17;;;8.10;;
72037;SDS011;59900;50.788;12.904;2023-04-19T03:13:04;17.47;;;8.30;;
72037;SDS011;59900;50.788;12.904;2023-04-19T03:15:29;14.33;;;7.33;;
72037;SDS011;59900;50.788;12.904;2023-04-19T03:17:54;16.60;;;7.63;;
72037;SDS011;59900;50.788;12.904;2023-04-19T03:20:20;15.30;;;7.27;;
72037;SDS011;59900;50.788;12.904;2023-04-19T03:22:45;18.03;;;7.80;;
72037;SDS011;59900;50.788;12.904;2023-04-19T03:25:10;14.03;;;7.70;;
72037;SDS011;59900;50.788;12.904;2023-04-19T03:27:38;17.42;;;7.47;;
72037;SDS011;59900;50.788;12.904;2023-04-19T03:30:04;19.17;;;7.87;;
72037;SDS011;59900;50.788;12.904;2023-04-19T03:32:30;14.80;;;7.40;;
72037;SDS011;59900;50.788;12.904;2023-04-19T03:34:55;15.75;;;7.47;;
72037;SDS011;59900;50.788;12.904;2023-04-19T03:37:21;14.97;;;7.73;;
72037;SDS011;59900;50.788;12.904;2023-04-19T03:39:46;15.53;;;7.17;;
72037;SDS011;59900;50.788;12.904;2023-04-19T03:42:11;14.53;;;7.00;;
72037;SDS011;59900;50.788;12.904;2023-04-19T03:44:36;17.40;;;7.97;;
72037;SDS011;59900;50.788;12.904;2023-04-19T03:47:02;15.60;;;8.03;;
72037;SDS011;59900;50.788;12.904;2023-04-19T03:49:27;15.50;;;7.80;;
72037;SDS011;59900;50.788;12.904;2023-04-19T03:51:52;17.73;;;7.70;;
72037;SDS011;59900;50.788;12.904;2023-04-19T03:54:18;18.83;;;8.53;;
72037;SDS011;59900;50.788;12.904;2023-04-19T03:56:43;19.30;;;8.93;;
72037;SDS011;59900;50.788;12.904;2023-04-19T03:59:08;17.70;;;8.50;;
72037;SDS011;59900;50.788;12.904;2023-04-19T04:01:33;17.43;;;8.43;;
72037;SDS011;59900;50.788;12.904;2023-04-19T04:03:59;17.80;;;9.07;;
72037;SDS011;59900;50.788;12.904;2023-04-19T04:06:24;18.93;;;9.17;;
72037;SDS011;59900;50.788;12.904;2023-04-19T04:08:50;19.08;;;9.60;;
72037;SDS011;59900;50.788;12.904;2023-04-19T04:11:16;19.33;;;9.27;;
72037;SDS011;59900;50.788;12.904;2023-04-19T04:13:41;19.20;;;9.43;;
72037;SDS011;59900;50.788;12.904;2023-04-19T04:16:07;21.10;;;8.68;;
72037;SDS011;59900;50.788;12.904;2023-04-19T04:18:32;19.97;;;9.27;;
72037;SDS011;59900;50.788;12.904;2023-04-19T04:20:57;18.93;;;9.53;;
72037;SDS011;59900;50.788;12.904;2023-04-19T04:23:23;21.40;;;9.27;;
72037;SDS011;59900;50.788;12.904;2023-04-19T04:25:56;22.35;;;9.75;;
72037;SDS011;59900;50.788;12.904;2023-04-19T04:28:28;20.17;;;10.48;;
72037;SDS011;59900;50.788;12.904;2023-04-19T04:30:54;23.17;;;9.73;;
72037;SDS011;59900;50.788;12.904;2023-04-19T04:33:23;23.15;;;11.02;;
72037;SDS011;59900;50.788;12.904;2023-04-19T04:35:49;20.03;;;9.70;;
72037;SDS011;59900;50.788;12.904;2023-04-19T04:38:15;21.55;;;9.25;;
72037;SDS011;59900;50.788;12.904;2023-04-19T04:40:40;22.17;;;10.83;;
72037;SDS011;59900;50.788;12.904;2023-04-19T04:43:06;25.53;;;10.13;;
72037;SDS011;59900;50.788;12.904;2023-04-19T04:45:32;25.75;;;10.52;;
72037;SDS011;59900;50.788;12.904;2023-04-19T04:47:57;23.35;;;10.80;;
72037;SDS011;59900;50.788;12.904;2023-04-19T04:50:23;26.90;;;11.00;;
72037;SDS011;59900;50.788;12.904;2023-04-19T04:52:48;22.60;;;11.07;;
72037;SDS011;59900;50.788;12.904;2023-04-19T04:55:13;23.13;;;10.60;;
72037;SDS011;59900;50.788;12.904;2023-04-19T04:57:38;22.87;;;10.90;;
72037;SDS011;59900;50.788;12.904;2023-04-19T05:00:05;22.80;;;11.03;;
72037;SDS011;59900;50.788;12.904;2023-04-19T05:02:31;23.67;;;10.88;;
72037;SDS011;59900;50.788;12.904;2023-04-19T05:04:56;25.20;;;10.77;;
72037;SDS011;59900;50.788;12.904;2023-04-19T05:07:21;24.17;;;11.63;;
72037;SDS011;59900;50.788;12.904;2023-04-19T05:09:47;28.80;;;11.80;;
72037;SDS011;59900;50.788;12.904;2023-04-19T05:12:12;30.27;;;11.60;;
72037;SDS011;59900;50.788;12.904;2023-04-19T05:14:38;28.50;;;11.55;;
72037;SDS011;59900;50.788;12.904;2023-04-19T05:17:03;29.37;;;12.50;;
72037;SDS011;59900;50.788;12.904;2023-04-19T05:19:28;26.60;;;12.13;;
72037;SDS011;59900;50.788;12.904;2023-04-19T05:21:53;27.07;;;12.40;;
72037;SDS011;59900;50.788;12.904;2023-04-19T05:24:19;24.83;;;11.63;;
72037;SDS011;59900;50.788;12.904;2023-04-19T05:26:44;23.50;;;11.10;;
72037;SDS011;59900;50.788;12.904;2023-04-19T05:29:09;22.43;;;10.03;;
72037;SDS011;59900;50.788;12.904;2023-04-19T05:31:34;22.23;;;10.90;;
72037;SDS011;59900;50.788;12.904;2023-04-19T05:34:00;18.27;;;10.10;;
72037;SDS011;59900;50.788;12.904;2023-04-19T05:36:25;23.70;;;10.23;;
72037;SDS011;59900;50.788;12.904;2023-04-19T05:38:50;19.83;;;10.70;;
72037;SDS011;59900;50.788;12.904;2023-04-19T05:41:16;18.30;;;10.17;;
72037;SDS011;59900;50.788;12.904;2023-04-19T05:43:41;19.07;;;9.70;;
72037;SDS011;59900;50.788;12.904;2023-04-19T05:46:06;20.50;;;9.03;;
72037;SDS011;59900;50.788;12.904;2023-04-19T05:48:31;18.77;;;9.13;;
72037;SDS011;59900;50.788;12.904;2023-04-19T05:50:57;19.17;;;8.77;;
72037;SDS011;59900;50.788;12.904;2023-04-19T05:53:23;19.43;;;8.80;;
72037;SDS011;59900;50.788;12.904;2023-04-19T05:55:49;18.17;;;9.55;;
72037;SDS011;59900;50.788;12.904;2023-04-19T05:58:15;16.33;;;8.10;;
72037;SDS011;59900;50.788;12.904;2023-04-19T06:00:41;17.60;;;7.82;;
72037;SDS011;59900;50.788;12.904;2023-04-19T06:03:06;13.13;;;6.73;;
72037;SDS011;59900;50.788;12.904;2023-04-19T06:05:32;14.13;;;6.90;;
72037;SDS011;59900;50.788;12.904;2023-04-19T06:07:58;13.43;;;6.60;;
72037;SDS011;59900;50.788;12.904;2023-04-19T06:10:23;18.00;;;7.07;;
72037;SDS011;59900;50.788;12.904;2023-04-19T06:12:48;17.80;;;7.97;;
72037;SDS011;59900;50.788;12.904;2023-04-19T06:15:13;14.93;;;6.83;;
72037;SDS011;59900;50.788;12.904;2023-04-19T06:17:39;13.13;;;6.20;;
72037;SDS011;59900;50.788;12.904;2023-04-19T06:20:04;10.87;;;5.63;;
72037;SDS011;59900;50.788;12.904;2023-04-19T06:22:32;12.52;;;6.35;;
72037;SDS011;59900;50.788;12.904;2023-04-19T06:24:57;9.83;;;5.40;;
72037;SDS011;59900;50.788;12.904;2023-04-19T06:27:22;13.97;;;5.27;;
72037;SDS011;59900;50.788;12.904;2023-04-19T06:29:48;11.63;;;5.67;;
72037;SDS011;59900;50.788;12.904;2023-04-19T06:32:13;13.43;;;5.73;;
72037;SDS011;59900;50.788;12.904;2023-04-19T06:34:38;11.30;;;5.57;;
72037;SDS011;59900;50.788;12.904;2023-04-19T06:37:04;10.10;;;5.03;;
72037;SDS011;59900;50.788;12.904;2023-04-19T06:39:29;12.50;;;4.80;;
72037;SDS011;59900;50.788;12.904;2023-04-19T06:41:54;13.47;;;5.20;;
72037;SDS011;59900;50.788;12.904;2023-04-19T06:44:19;15.33;;;5.10;;
72037;SDS011;59900;50.788;12.904;2023-04-19T06:46:45;10.27;;;4.87;;
72037;SDS011;59900;50.788;12.904;2023-04-19T06:49:10;10.27;;;4.90;;
72037;SDS011;59900;50.788;12.904;2023-04-19T06:51:36;12.97;;;4.60;;
72037;SDS011;59900;50.788;12.904;2023-04-19T06:54:02;11.53;;;4.27;;
72037;SDS011;59900;50.788;12.904;2023-04-19T06:59:13;9.18;;;3.97;;
72037;SDS011;59900;50.788;12.904;2023-04-19T07:01:40;9.20;;;4.00;;
72037;SDS011;59900;50.788;12.904;2023-04-19T07:04:06;9.13;;;3.60;;
72037;SDS011;59900;50.788;12.904;2023-04-19T07:06:32;7.63;;;4.17;;
72037;SDS011;59900;50.788;12.904;2023-04-19T07:09:00;6.82;;;3.47;;
72037;SDS011;59900;50.788;12.904;2023-04-19T07:11:26;11.57;;;4.13;;
72037;SDS011;59900;50.788;12.904;2023-04-19T07:13:51;9.00;;;4.07;;
72037;SDS011;59900;50.788;12.904;2023-04-19T07:16:17;7.93;;;3.20;;
72037;SDS011;59900;50.788;12.904;2023-04-19T07:18:42;7.53;;;3.13;;
72037;SDS011;59900;50.788;12.904;2023-04-19T07:21:07;6.45;;;3.35;;
72037;SDS011;59900;50.788;12.904;2023-04-19T07:23:33;6.23;;;2.50;;
72037;SDS011;59900;50.788;12.904;2023-04-19T07:25:58;7.23;;;3.40;;
72037;SDS011;59900;50.788;12.904;2023-04-19T07:28:23;6.40;;;3.03;;
72037;SDS011;59900;50.788;12.904;2023-04-19T07:30:49;7.10;;;3.13;;
72037;SDS011;59900;50.788;12.904;2023-04-19T07:33:14;8.10;;;3.13;;
72037;SDS011;59900;50.788;12.904;2023-04-19T07:35:39;7.10;;;3.20;;
72037;SDS011;59900;50.788;12.904;2023-04-19T07:38:05;7.20;;;3.03;;
72037;SDS011;59900;50.788;12.904;2023-04-19T07:40:30;7.43;;;3.80;;
72037;SDS011;59900;50.788;12.904;2023-04-19T07:42:55;7.77;;;3.80;;
72037;SDS011;59900;50.788;12.904;2023-04-19T07:45:21;8.40;;;3.50;;
72037;SDS011;59900;50.788;12.904;2023-04-19T07:47:46;10.93;;;3.30;;
72037;SDS011;59900;50.788;12.904;2023-04-19T07:50:12;6.73;;;3.10;;
72037;SDS011;59900;50.788;12.904;2023-04-19T07:52:37;6.93;;;3.20;;
72037;SDS011;59900;50.788;12.904;2023-04-19T07:55:02;6.10;;;2.57;;
72037;SDS011;59900;50.788;12.904;2023-04-19T07:57:28;7.43;;;3.00;;
72037;SDS011;59900;50.788;12.904;2023-04-19T07:59:53;7.37;;;3.03;;
72037;SDS011;59900;50.788;12.904;2023-04-19T08:02:21;6.95;;;2.90;;
72037;SDS011;59900;50.788;12.904;2023-04-19T08:04:47;8.63;;;2.80;;
72037;SDS011;59900;50.788;12.904;2023-04-19T08:07:13;10.27;;;4.25;;
72037;SDS011;59900;50.788;12.904;2023-04-19T08:09:39;7.57;;;3.43;;
72037;SDS011;59900;50.788;12.904;2023-04-19T08:12:04;6.80;;;2.77;;
72037;SDS011;59900;50.788;12.904;2023-04-19T08:14:29;7.60;;;3.33;;
72037;SDS011;59900;50.788;12.904;2023-04-19T08:16:55;6.67;;;2.70;;
72037;SDS011;59900;50.788;12.904;2023-04-19T08:19:20;7.93;;;2.93;;
72037;SDS011;59900;50.788;12.904;2023-04-19T08:21:45;5.10;;;2.20;;
72037;SDS011;59900;50.788;12.904;2023-04-19T08:24:10;7.00;;;2.93;;
72037;SDS011;59900;50.788;12.904;2023-04-19T08:26:36;5.30;;;2.40;;
72037;SDS011;59900;50.788;12.904;2023-04-19T08:29:02;6.80;;;2.80;;
72037;SDS011;59900;50.788;12.904;2023-04-19T08:31:28;5.40;;;2.43;;
72037;SDS011;59900;50.788;12.904;2023-04-19T08:33:53;5.60;;;2.73;;
72037;SDS011;59900;50.788;12.904;2023-04-19T08:36:18;8.90;;;2.90;;
72037;SDS011;59900;50.788;12.904;2023-04-19T08:38:43;6.27;;;2.83;;
72037;SDS011;59900;50.788;12.904;2023-04-19T08:41:10;5.27;;;2.77;;
72037;SDS011;59900;50.788;12.904;2023-04-19T08:43:36;6.25;;;2.92;;
72037;SDS011;59900;50.788;12.904;2023-04-19T08:46:02;6.82;;;2.40;;
72037;SDS011;59900;50.788;12.904;2023-04-19T08:48:29;6.00;;;2.80;;
72037;SDS011;59900;50.788;12.904;2023-04-19T08:50:58;5.95;;;2.70;;
72037;SDS011;59900;50.788;12.904;2023-04-19T08:53:24;5.78;;;2.83;;
72037;SDS011;59900;50.788;12.904;2023-04-19T08:55:52;5.15;;;2.47;;
72037;SDS011;59900;50.788;12.904;2023-04-19T08:58:22;6.13;;;2.80;;
72037;SDS011;59900;50.788;12.904;2023-04-19T09:00:48;5.78;;;2.95;;
72037;SDS011;59900;50.788;12.904;2023-04-19T09:03:14;5.53;;;2.53;;
72037;SDS011;59900;50.788;12.904;2023-04-19T09:05:39;6.73;;;2.83;;
72037;SDS011;59900;50.788;12.904;2023-04-19T09:08:23;6.23;;;2.70;;
72037;SDS011;59900;50.788;12.904;2023-04-19T09:10:51;5.65;;;2.28;;
72037;SDS011;59900;50.788;12.904;2023-04-19T09:13:18;5.57;;;2.50;;
72037;SDS011;59900;50.788;12.904;2023-04-19T09:15:43;5.70;;;2.53;;
72037;SDS011;59900;50.788;12.904;2023-04-19T09:18:09;8.77;;;4.43;;
72037;SDS011;59900;50.788;12.904;2023-04-19T09:20:43;7.13;;;3.13;;
72037;SDS011;59900;50.788;12.904;2023-04-19T09:23:10;6.90;;;2.53;;
72037;SDS011;59900;50.788;12.904;2023-04-19T09:25:39;7.77;;;3.20;;
72037;SDS011;59900;50.788;12.904;2023-04-19T09:28:08;5.78;;;2.78;;
72037;SDS011;59900;50.788;12.904;2023-04-19T09:30:35;6.72;;;2.97;;
72037;SDS011;59900;50.788;12.904;2023-04-19T09:33:00;6.50;;;2.77;;
72037;SDS011;59900;50.788;12.904;2023-04-19T09:35:38;6.77;;;2.77;;
72037;SDS011;59900;50.788;12.904;2023-04-19T09:38:07;5.25;;;2.65;;
72037;SDS011;59900;50.788;12.904;2023-04-19T09:40:33;7.03;;;2.70;;
72037;SDS011;59900;50.788;12.904;2023-04-19T09:42:58;8.00;;;2.43;;
72037;SDS011;59900;50.788;12.904;2023-04-19T09:45:25;5.80;;;2.73;;
72037;SDS011;59900;50.788;12.904;2023-04-19T09:48:00;6.95;;;2.85;;
72037;SDS011;59900;50.788;12.904;2023-04-19T09:50:27;6.10;;;2.70;;
72037;SDS011;59900;50.788;12.904;2023-04-19T09:52:52;6.00;;;2.90;;
72037;SDS011;59900;50.788;12.904;2023-04-19T09:55:19;6.40;;;3.28;;
72037;SDS011;59900;50.788;12.904;2023-04-19T09:57:45;7.87;;;2.90;;
72037;SDS011;59900;50.788;12.904;2023-04-19T10:00:10;6.17;;;2.70;;
72037;SDS011;59900;50.788;12.904;2023-04-19T10:02:38;6.85;;;2.85;;
72037;SDS011;59900;50.788;12.904;2023-04-19T10:05:05;6.80;;;2.63;;
72037;SDS011;59900;50.788;12.904;2023-04-19T10:07:32;7.80;;;3.55;;
72037;SDS011;59900;50.788;12.904;2023-04-19T10:09:57;6.20;;;2.67;;
72037;SDS011;59900;50.788;12.904;2023-04-19T10:12:24;7.95;;;3.25;;
72037;SDS011;59900;50.788;12.904;2023-04-19T10:14:51;8.47;;;3.67;;
72037;SDS011;59900;50.788;12.904;2023-04-19T10:17:19;5.85;;;2.63;;
72037;SDS011;59900;50.788;12.904;2023-04-19T10:19:45;6.45;;;3.00;;
72037;SDS011;59900;50.788;12.904;2023-04-19T10:22:11;8.52;;;3.05;;
72037;SDS011;59900;50.788;12.904;2023-04-19T10:24:38;7.80;;;2.67;;
72037;SDS011;59900;50.788;12.904;2023-04-19T10:27:10;5.53;;;2.80;;
72037;SDS011;59900;50.788;12.904;2023-04-19T10:32:17;5.75;;;2.97;;
72037;SDS011;59900;50.788;12.904;2023-04-19T10:34:42;6.70;;;3.17;;
72037;SDS011;59900;50.788;12.904;2023-04-19T10:37:10;7.60;;;3.10;;
72037;SDS011;59900;50.788;12.904;2023-04-19T10:39:39;7.10;;;2.83;;
72037;SDS011;59900;50.788;12.904;2023-04-19T10:42:05;8.20;;;3.53;;
72037;SDS011;59900;50.788;12.904;2023-04-19T10:44:30;7.50;;;3.23;;
72037;SDS011;59900;50.788;12.904;2023-04-19T10:46:57;5.97;;;2.80;;
72037;SDS011;59900;50.788;12.904;2023-04-19T10:49:22;7.28;;;2.70;;
72037;SDS011;59900;50.788;12.904;2023-04-19T10:51:48;6.40;;;2.70;;
72037;SDS011;59900;50.788;12.904;2023-04-19T10:54:33;7.67;;;2.77;;
72037;SDS011;59900;50.788;12.904;2023-04-19T10:57:05;7.55;;;3.30;;
72037;SDS011;59900;50.788;12.904;2023-04-19T10:59:32;7.85;;;2.78;;
72037;SDS011;59900;50.788;12.904;2023-04-19T11:01:58;7.57;;;3.50;;
72037;SDS011;59900;50.788;12.904;2023-04-19T11:07:00;7.73;;;3.40;;
72037;SDS011;59900;50.788;12.904;2023-04-19T11:09:33;9.57;;;3.30;;
72037;SDS011;59900;50.788;12.904;2023-04-19T11:12:04;8.35;;;3.58;;
72037;SDS011;59900;50.788;12.904;2023-04-19T11:14:34;7.78;;;3.20;;
72037;SDS011;59900;50.788;12.904;2023-04-19T11:20:02;7.53;;;3.00;;
72037;SDS011;59900;50.788;12.904;2023-04-19T11:22:34;6.57;;;3.08;;
72037;SDS011;59900;50.788;12.904;2023-04-19T11:25:03;7.40;;;3.47;;
72037;SDS011;59900;50.788;12.904;2023-04-19T11:27:32;6.78;;;3.42;;
72037;SDS011;59900;50.788;12.904;2023-04-19T11:30:05;8.80;;;4.00;;
72037;SDS011;59900;50.788;12.904;2023-04-19T11:32:35;7.57;;;3.10;;
72037;SDS011;59900;50.788;12.904;2023-04-19T11:35:04;10.05;;;3.17;;
72037;SDS011;59900;50.788;12.904;2023-04-19T11:37:32;7.07;;;3.28;;
72037;SDS011;59900;50.788;12.904;2023-04-19T11:39:58;9.88;;;3.65;;
72037;SDS011;59900;50.788;12.904;2023-04-19T11:42:23;8.30;;;3.50;;
72037;SDS011;59900;50.788;12.904;2023-04-19T11:44:49;8.07;;;3.53;;
72037;SDS011;59900;50.788;12.904;2023-04-19T11:47:15;7.28;;;3.50;;
72037;SDS011;59900;50.788;12.904;2023-04-19T11:49:41;6.60;;;3.20;;
72037;SDS011;59900;50.788;12.904;2023-04-19T11:52:06;10.73;;;4.20;;
72037;SDS011;59900;50.788;12.904;2023-04-19T11:54:31;7.30;;;3.33;;
72037;SDS011;59900;50.788;12.904;2023-04-19T11:57:01;7.22;;;3.50;;
72037;SDS011;59900;50.788;12.904;2023-04-19T11:59:31;5.70;;;2.97;;
72037;SDS011;59900;50.788;12.904;2023-04-19T12:02:04;6.13;;;3.08;;
72037;SDS011;59900;50.788;12.904;2023-04-19T12:04:31;8.27;;;3.10;;
72037;SDS011;59900;50.788;12.904;2023-04-19T12:06:57;8.10;;;3.10;;
72037;SDS011;59900;50.788;12.904;2023-04-19T12:09:23;7.72;;;2.90;;
72037;SDS011;59900;50.788;12.904;2023-04-19T12:11:49;7.82;;;4.00;;
72037;SDS011;59900;50.788;12.904;2023-04-19T12:14:15;7.13;;;3.10;;
72037;SDS011;59900;50.788;12.904;2023-04-19T12:16:43;7.03;;;3.28;;
72037;SDS011;59900;50.788;12.904;2023-04-19T12:19:18;6.57;;;3.30;;
72037;SDS011;59900;50.788;12.904;2023-04-19T12:21:44;12.38;;;2.83;;
72037;SDS011;59900;50.788;12.904;2023-04-19T12:24:10;8.77;;;3.00;;
72037;SDS011;59900;50.788;12.904;2023-04-19T12:26:51;7.38;;;2.88;;
72037;SDS011;59900;50.788;12.904;2023-04-19T12:29:20;7.00;;;3.30;;
72037;SDS011;59900;50.788;12.904;2023-04-19T12:35:20;7.20;;;3.33;;
72037;SDS011;59900;50.788;12.904;2023-04-19T12:37:47;7.63;;;3.38;;
72037;SDS011;59900;50.788;12.904;2023-04-19T12:40:13;9.52;;;3.55;;
72037;SDS011;59900;50.788;12.904;2023-04-19T12:42:39;7.38;;;3.65;;
72037;SDS011;59900;50.788;12.904;2023-04-19T12:45:04;7.70;;;3.70;;
72037;SDS011;59900;50.788;12.904;2023-04-19T12:47:30;8.00;;;3.20;;
72037;SDS011;59900;50.788;12.904;2023-04-19T12:49:55;7.70;;;3.10;;
72037;SDS011;59900;50.788;12.904;2023-04-19T12:52:21;7.33;;;3.60;;
72037;SDS011;59900;50.788;12.904;2023-04-19T12:54:47;7.83;;;3.93;;
72037;SDS011;59900;50.788;12.904;2023-04-19T12:57:12;6.10;;;3.40;;
72037;SDS011;59900;50.788;12.904;2023-04-19T12:59:37;10.73;;;3.27;;
72037;SDS011;59900;50.788;12.904;2023-04-19T13:02:02;7.17;;;3.57;;
72037;SDS011;59900;50.788;12.904;2023-04-19T13:04:28;5.90;;;3.00;;
72037;SDS011;59900;50.788;12.904;2023-04-19T13:06:53;12.83;;;6.07;;
72037;SDS011;59900;50.788;12.904;2023-04-19T13:09:18;13.00;;;3.50;;
72037;SDS011;59900;50.788;12.904;2023-04-19T13:11:43;9.73;;;3.83;;
72037;SDS011;59900;50.788;12.904;2023-04-19T13:14:09;10.03;;;3.63;;
72037;SDS011;59900;50.788;12.904;2023-04-19T13:16:34;7.83;;;3.77;;
72037;SDS011;59900;50.788;12.904;2023-04-19T13:19:00;7.43;;;3.33;;
72037;SDS011;59900;50.788;12.904;2023-04-19T13:21:25;7.22;;;3.15;;
72037;SDS011;59900;50.788;12.904;2023-04-19T13:23:51;8.67;;;3.30;;
72037;SDS011;59900;50.788;12.904;2023-04-19T13:26:17;6.70;;;3.20;;
72037;SDS011;59900;50.788;12.904;2023-04-19T13:28:42;7.43;;;3.17;;
72037;SDS011;59900;50.788;12.904;2023-04-19T13:31:07;7.33;;;3.40;;
72037;SDS011;59900;50.788;12.904;2023-04-19T13:33:33;9.03;;;3.90;;
72037;SDS011;59900;50.788;12.904;2023-04-19T13:35:58;9.17;;;3.83;;
72037;SDS011;59900;50.788;12.904;2023-04-19T13:38:23;9.87;;;3.77;;
72037;SDS011;59900;50.788;12.904;2023-04-19T13:40:49;8.10;;;4.40;;
72037;SDS011;59900;50.788;12.904;2023-04-19T13:43:15;8.77;;;4.40;;
72037;SDS011;59900;50.788;12.904;2023-04-19T13:45:40;8.07;;;4.13;;
72037;SDS011;59900;50.788;12.904;2023-04-19T13:48:05;10.13;;;3.73;;
72037;SDS011;59900;50.788;12.904;2023-04-19T13:50:30;7.87;;;3.87;;
72037;SDS011;59900;50.788;12.904;2023-04-19T13:52:56;7.80;;;3.90;;
72037;SDS011;59900;50.788;12.904;2023-04-19T13:55:21;7.67;;;3.80;;
72037;SDS011;59900;50.788;12.904;2023-04-19T13:57:46;10.90;;;3.73;;
72037;SDS011;59900;50.788;12.904;2023-04-19T14:00:11;9.10;;;3.93;;
72037;SDS011;59900;50.788;12.904;2023-04-19T14:02:37;7.35;;;3.60;;
72037;SDS011;59900;50.788;12.904;2023-04-19T14:05:03;10.17;;;3.90;;
72037;SDS011;59900;50.788;12.904;2023-04-19T14:07:28;10.13;;;3.90;;
72037;SDS011;59900;50.788;12.904;2023-04-19T14:09:54;7.40;;;4.00;;
72037;SDS011;59900;50.788;12.904;2023-04-19T14:12:19;8.73;;;4.47;;
72037;SDS011;59900;50.788;12.904;2023-04-19T14:14:44;7.03;;;3.75;;
72037;SDS011;59900;50.788;12.904;2023-04-19T14:17:10;7.17;;;4.30;;
72037;SDS011;59900;50.788;12.904;2023-04-19T14:19:35;8.10;;;3.80;;
72037;SDS011;59900;50.788;12.904;2023-04-19T14:22:00;6.80;;;4.30;;
72037;SDS011;59900;50.788;12.904;2023-04-19T14:24:26;10.73;;;3.83;;
72037;SDS011;59900;50.788;12.904;2023-04-19T14:26:51;9.43;;;4.47;;
72037;SDS011;59900;50.788;12.904;2023-04-19T14:29:17;9.45;;;4.32;;
72037;SDS011;59900;50.788;12.904;2023-04-19T14:31:42;9.70;;;4.47;;
72037;SDS011;59900;50.788;12.904;2023-04-19T14:34:07;7.90;;;4.30;;